createdAt,value
2018-05-17T00:00:50.265Z,8.67
2018-05-17T00:02:55.079Z,9.07
2018-05-17T00:04:59.063Z,8.93
2018-05-17T00:07:02.966Z,8.47
2018-05-17T00:09:07.452Z,8.97
2018-05-17T00:11:11.418Z,9.23
2018-05-17T00:13:15.395Z,8.53
2018-05-17T00:15:21.587Z,9.07
2018-05-17T00:17:25.450Z,8.40
2018-05-17T00:19:30.084Z,9.50
2018-05-17T00:21:35.371Z,10.10
2018-05-17T00:23:40.687Z,9.73
2018-05-17T00:25:44.614Z,10.17
2018-05-17T00:27:49.341Z,9.47
2018-05-17T00:29:53.993Z,9.73
2018-05-17T00:31:57.839Z,10.17
2018-05-17T00:34:02.057Z,9.83
2018-05-17T00:36:06.034Z,9.67
2018-05-17T00:38:09.989Z,9.83
2018-05-17T00:40:14.266Z,9.50
2018-05-17T00:42:19.182Z,8.87
2018-05-17T00:44:23.877Z,9.27
2018-05-17T00:46:28.254Z,8.93
2018-05-17T00:48:32.185Z,8.30
2018-05-17T00:50:36.062Z,8.50
2018-05-17T00:52:40.278Z,9.17
2018-05-17T00:54:44.207Z,9.33
2018-05-17T00:56:48.029Z,9.00
2018-05-17T00:58:53.338Z,7.97
2018-05-17T01:00:57.198Z,9.03
2018-05-17T01:03:01.432Z,8.67
2018-05-17T01:05:06.645Z,8.47
2018-05-17T01:07:10.503Z,8.70
2018-05-17T01:09:15.159Z,8.47
2018-05-17T01:11:19.292Z,8.93
2018-05-17T01:13:24.232Z,9.70
2018-05-17T01:15:28.210Z,9.37
2018-05-17T01:17:33.499Z,9.97
2018-05-17T01:19:37.437Z,9.90
2018-05-17T01:21:41.345Z,9.70
2018-05-17T01:23:45.210Z,10.00
2018-05-17T01:25:49.138Z,10.53
2018-05-17T01:27:53.781Z,10.70
2018-05-17T01:29:57.985Z,10.83
2018-05-17T01:32:01.894Z,10.60
2018-05-17T01:34:05.908Z,10.70
2018-05-17T01:36:10.282Z,11.27
2018-05-17T01:38:26.165Z,11.63
2018-05-17T01:40:30.947Z,10.90
2018-05-17T02:01:40.716Z,11.60
2018-05-17T02:03:48.763Z,13.47
2018-05-17T02:05:53.743Z,13.20
2018-05-17T02:07:59.228Z,13.10
2018-05-17T02:10:03.300Z,13.83
2018-05-17T02:12:08.030Z,12.50
2018-05-17T02:14:14.296Z,12.70
2018-05-17T02:40:18.052Z,12.07
2018-05-17T02:42:23.941Z,11.53
2018-05-17T02:44:29.547Z,11.00
2018-05-17T02:46:35.773Z,11.17
2018-05-17T02:48:41.409Z,11.60
2018-05-17T02:50:46.874Z,12.33
2018-05-17T03:00:53.032Z,14.53
2018-05-17T03:11:25.941Z,14.90
2018-05-17T03:25:32.827Z,15.40
2018-05-17T03:27:40.085Z,14.23
2018-05-17T03:30:03.121Z,14.20
2018-05-17T03:32:11.324Z,14.07
2018-05-17T03:34:17.416Z,15.03
2018-05-17T03:39:20.792Z,13.73
2018-05-17T03:41:24.990Z,13.37
2018-05-17T03:43:28.908Z,13.40
2018-05-17T03:45:33.790Z,13.67
2018-05-17T03:47:37.691Z,13.00
2018-05-17T03:49:41.572Z,14.90
2018-05-17T03:51:45.456Z,13.53
2018-05-17T03:53:49.311Z,12.63
2018-05-17T03:55:53.252Z,12.23
2018-05-17T03:57:57.095Z,12.67
2018-05-17T04:00:00.853Z,13.17
2018-05-17T04:04:19.013Z,12.93
2018-05-17T04:06:39.095Z,13.10
2018-05-17T04:08:43.465Z,12.10
2018-05-17T04:10:48.140Z,12.67
2018-05-17T04:12:52.124Z,12.87
2018-05-17T04:14:56.480Z,12.47
2018-05-17T04:17:00.422Z,12.80
2018-05-17T04:19:04.327Z,12.87
2018-05-17T04:21:08.662Z,11.13
2018-05-17T04:23:12.598Z,12.13
2018-05-17T04:25:16.564Z,12.03
2018-05-17T04:27:20.511Z,12.17
2018-05-17T04:29:24.495Z,12.20
2018-05-17T04:31:28.380Z,12.43
2018-05-17T04:33:33.585Z,11.80
2018-05-17T04:35:37.459Z,11.90
2018-05-17T04:37:42.106Z,11.97
2018-05-17T04:39:46.369Z,12.50
2018-05-17T04:41:50.232Z,11.77
2018-05-17T04:43:54.109Z,12.70
2018-05-17T04:45:58.337Z,12.83
2018-05-17T04:48:02.255Z,12.87
2018-05-17T04:50:06.223Z,12.57
2018-05-17T04:52:10.098Z,11.60
2018-05-17T04:54:14.013Z,11.77
2018-05-17T04:56:17.814Z,11.13
2018-05-17T04:58:22.458Z,10.70
2018-05-17T05:00:27.279Z,10.27
2018-05-17T05:02:31.278Z,11.10
2018-05-17T05:04:35.644Z,10.13
2018-05-17T05:06:39.613Z,10.20
2018-05-17T05:08:43.514Z,10.27
2018-05-17T05:10:47.736Z,10.13
2018-05-17T05:12:51.620Z,8.73
2018-05-17T05:14:55.486Z,9.50
2018-05-17T05:16:59.940Z,9.83
2018-05-17T05:19:03.996Z,9.57
2018-05-17T05:21:07.963Z,9.40
2018-05-17T05:23:14.294Z,9.80
2018-05-17T05:25:19.155Z,9.33
2018-05-17T05:27:23.033Z,9.23
2018-05-17T05:29:27.695Z,8.73
2018-05-17T05:31:32.182Z,8.67
2018-05-17T05:33:36.634Z,9.33
2018-05-17T05:35:41.786Z,8.43
2018-05-17T05:37:46.874Z,8.50
2018-05-17T05:39:50.985Z,8.73
2018-05-17T05:41:55.129Z,8.27
2018-05-17T05:43:59.056Z,8.70
2018-05-17T05:46:04.516Z,7.90
2018-05-17T05:48:09.020Z,8.53
2018-05-17T05:50:12.970Z,8.23
2018-05-17T05:52:17.692Z,8.13
2018-05-17T05:54:21.860Z,7.60
2018-05-17T05:56:25.804Z,8.07
2018-05-17T05:58:31.220Z,7.60
2018-05-17T06:00:36.964Z,7.67
2018-05-17T06:02:42.540Z,7.40
2018-05-17T06:04:47.580Z,7.17
2018-05-17T06:06:52.659Z,7.83
2018-05-17T06:08:56.455Z,7.97
2018-05-17T06:11:00.318Z,7.83
2018-05-17T06:13:04.981Z,7.43
2018-05-17T06:15:08.896Z,7.23
2018-05-17T06:17:12.817Z,7.43
2018-05-17T06:19:17.737Z,7.33
2018-05-17T06:21:21.645Z,7.30
2018-05-17T06:23:25.514Z,7.43
2018-05-17T06:25:30.832Z,7.07
2018-05-17T06:27:35.506Z,7.17
2018-05-17T06:29:39.861Z,6.63
2018-05-17T06:31:46.513Z,7.63
2018-05-17T06:33:50.409Z,7.60
2018-05-17T06:35:54.313Z,7.97
2018-05-17T06:37:58.581Z,8.03
2018-05-17T06:40:02.738Z,6.80
2018-05-17T06:42:06.635Z,7.50
2018-05-17T06:44:11.028Z,7.17
2018-05-17T06:46:16.457Z,7.07
2018-05-17T06:48:20.428Z,7.67
2018-05-17T06:50:26.734Z,7.07
2018-05-17T06:52:30.738Z,7.17
2018-05-17T06:54:35.472Z,7.00
2018-05-17T06:56:39.868Z,7.07
2018-05-17T06:58:44.632Z,5.93
2018-05-17T07:00:48.551Z,6.73
2018-05-17T07:02:52.762Z,6.70
2018-05-17T07:04:57.469Z,7.37
2018-05-17T07:07:01.414Z,7.50
2018-05-17T07:09:11.438Z,6.47
2018-05-17T07:11:25.249Z,6.13
2018-05-17T07:13:31.443Z,6.40
2018-05-17T07:15:35.774Z,5.83
2018-05-17T07:17:41.178Z,6.53
2018-05-17T07:19:45.174Z,6.27
2018-05-17T07:21:53.454Z,6.60
2018-05-17T07:23:57.360Z,6.37
2018-05-17T07:26:01.928Z,6.93
2018-05-17T07:28:05.962Z,7.10
2018-05-17T07:30:09.923Z,7.03
2018-05-17T07:32:15.634Z,6.67
2018-05-17T07:34:19.963Z,7.63
2018-05-17T07:36:23.973Z,6.33
2018-05-17T07:38:28.012Z,6.87
2018-05-17T07:44:30.980Z,6.80
2018-05-17T07:56:11.893Z,6.23
2018-05-17T07:58:32.771Z,6.17
2018-05-17T08:06:49.063Z,5.93
2018-05-17T08:08:54.609Z,5.90
2018-05-17T08:11:30.565Z,5.80
2018-05-17T08:13:40.944Z,6.20
2018-05-17T08:15:57.970Z,6.10
2018-05-17T08:18:40.671Z,6.03
2018-05-17T08:20:51.477Z,5.73
2018-05-17T08:23:02.554Z,5.97
2018-05-17T08:25:15.177Z,6.10
2018-05-17T08:30:30.285Z,6.27
2018-05-17T08:32:42.040Z,5.97
2018-05-17T08:35:06.958Z,5.67
2018-05-17T08:37:25.175Z,5.80
2018-05-17T08:39:35.455Z,5.30
2018-05-17T08:42:11.538Z,6.00
2018-05-17T08:47:01.102Z,5.37
2018-05-17T08:49:10.865Z,6.20
2018-05-17T09:07:51.951Z,5.60
2018-05-17T09:10:05.919Z,5.53
2018-05-17T09:12:15.094Z,5.83
2018-05-17T09:14:24.756Z,5.43
2018-05-17T09:24:34.537Z,6.20
2018-05-17T09:27:08.423Z,5.60
2018-05-17T09:32:09.773Z,4.57
2018-05-17T09:34:19.826Z,5.20
2018-05-17T09:36:42.357Z,5.47
2018-05-17T09:39:09.666Z,5.07
2018-05-17T09:41:21.790Z,5.17
2018-05-17T09:52:34.872Z,4.30
2018-05-17T09:58:17.204Z,4.60
2018-05-17T10:00:26.974Z,5.37
2018-05-17T10:02:40.616Z,4.60
2018-05-17T10:04:48.448Z,4.23
2018-05-17T10:06:57.531Z,5.87
2018-05-17T10:09:14.537Z,4.60
2018-05-17T10:11:33.764Z,4.60
2018-05-17T10:13:44.109Z,5.30
2018-05-17T10:15:51.776Z,4.57
2018-05-17T10:23:19.740Z,4.43
2018-05-17T10:25:37.166Z,5.27
2018-05-17T10:27:49.481Z,4.73
2018-05-17T10:29:57.347Z,4.77
2018-05-17T10:37:16.805Z,4.67
2018-05-17T10:39:40.095Z,5.50
2018-05-17T10:42:05.420Z,5.03
2018-05-17T10:44:35.316Z,4.37
2018-05-17T10:46:42.980Z,4.83
2018-05-17T10:48:50.535Z,5.50
2018-05-17T10:52:56.198Z,4.53
2018-05-17T10:55:14.067Z,5.43
2018-05-17T10:57:33.212Z,5.07
2018-05-17T11:00:04.954Z,4.83
2018-05-17T11:02:38.558Z,4.10
2018-05-17T11:07:40.737Z,5.00
2018-05-17T11:12:58.226Z,4.53
2018-05-17T11:15:05.218Z,4.50
2018-05-17T11:17:10.003Z,4.93
2018-05-17T11:19:14.118Z,5.10
2018-05-17T11:21:21.004Z,4.83
2018-05-17T11:23:31.317Z,5.30
2018-05-17T11:25:38.218Z,5.47
2018-05-17T11:27:45.346Z,5.00
2018-05-17T11:30:01.153Z,5.00
2018-05-17T11:32:14.268Z,5.57
2018-05-17T11:34:25.781Z,5.83
2018-05-17T11:36:35.933Z,5.03
2018-05-17T11:38:40.865Z,4.60
2018-05-17T11:40:45.889Z,4.70
2018-05-17T11:42:51.483Z,4.83
2018-05-17T11:44:57.774Z,5.27
2018-05-17T11:47:03.585Z,4.87
2018-05-17T11:49:07.823Z,4.50
2018-05-17T11:51:11.736Z,4.43
2018-05-17T11:53:16.812Z,5.73
2018-05-17T11:55:22.101Z,4.60
2018-05-17T11:57:28.402Z,5.40
2018-05-17T11:59:47.212Z,4.20
2018-05-17T12:01:57.928Z,4.43
2018-05-17T12:04:29.095Z,4.53
2018-05-17T12:06:36.185Z,4.17
2018-05-17T12:08:46.389Z,5.00
2018-05-17T12:10:54.160Z,4.90
2018-05-17T12:13:02.526Z,4.37
2018-05-17T12:15:15.957Z,4.67
2018-05-17T12:17:24.996Z,4.17
2018-05-17T12:19:41.678Z,4.67
2018-05-17T12:21:49.129Z,5.03
2018-05-17T12:24:02.481Z,5.17
2018-05-17T12:26:07.182Z,5.43
2018-05-17T12:35:30.435Z,5.10
2018-05-17T12:37:40.544Z,4.90
2018-05-17T12:39:54.751Z,5.63
2018-05-17T12:41:59.378Z,6.27
2018-05-17T12:44:04.249Z,5.33
2018-05-17T12:46:14.571Z,5.13
2018-05-17T12:48:18.747Z,5.33
2018-05-17T12:50:27.891Z,4.60
2018-05-17T12:52:36.632Z,5.80
2018-05-17T12:54:41.834Z,5.87
2018-05-17T12:56:48.536Z,5.60
2018-05-17T12:59:01.835Z,4.87
2018-05-17T13:05:56.241Z,5.77
2018-05-17T13:25:53.837Z,4.73
2018-05-17T13:51:19.358Z,5.97
2018-05-17T13:53:39.603Z,5.47
2018-05-17T13:55:48.457Z,5.47
2018-05-17T13:57:58.808Z,6.33
2018-05-17T14:00:09.978Z,6.67
2018-05-17T14:02:17.365Z,6.37
2018-05-17T14:04:32.669Z,5.20
2018-05-17T14:06:53.487Z,5.95
2018-05-17T14:09:10.465Z,5.27
2018-05-17T14:11:20.002Z,6.20
2018-05-17T14:13:26.478Z,5.40
2018-05-17T14:18:41.848Z,4.87
2018-05-17T14:26:27.574Z,5.70
2018-05-17T14:28:34.283Z,5.23
2018-05-17T14:30:46.805Z,5.57
2018-05-17T14:33:05.281Z,6.23
2018-05-17T14:35:20.041Z,5.63
2018-05-17T14:37:27.093Z,5.80
2018-05-17T14:39:51.644Z,5.50
2018-05-17T14:42:55.858Z,5.50
2018-05-17T14:45:18.700Z,6.80
2018-05-17T14:47:25.068Z,6.60
2018-05-17T14:49:31.605Z,5.20
2018-05-17T14:54:10.492Z,5.73
2018-05-17T14:56:16.825Z,5.17
2018-05-17T14:58:22.247Z,5.43
2018-05-17T15:00:28.415Z,5.47
2018-05-17T15:02:35.952Z,7.47
2018-05-17T15:04:40.565Z,7.80
2018-05-17T15:06:47.389Z,7.37
2018-05-17T15:08:55.445Z,8.17
2018-05-17T15:11:03.889Z,7.70
2018-05-17T15:13:10.004Z,7.10
2018-05-17T15:24:52.265Z,6.00
2018-05-17T15:26:57.769Z,6.57
2018-05-17T15:29:06.332Z,6.47
2018-05-17T15:31:13.027Z,7.03
2018-05-17T15:33:17.255Z,6.77
2018-05-17T15:35:22.421Z,7.33
2018-05-17T15:37:30.651Z,7.20
2018-05-17T15:39:37.869Z,6.67
2018-05-17T15:42:07.135Z,7.70
2018-05-17T15:45:57.809Z,7.27
2018-05-17T15:48:02.837Z,7.87
2018-05-17T15:50:20.684Z,6.90
2018-05-17T15:55:01.732Z,7.17
2018-05-17T15:57:06.137Z,6.50
2018-05-17T15:59:11.910Z,6.70
2018-05-17T16:01:18.652Z,6.40
2018-05-17T16:03:23.828Z,6.03
2018-05-17T16:05:28.503Z,6.37
2018-05-17T16:07:34.136Z,6.77
2018-05-17T16:47:02.123Z,7.57
2018-05-17T16:56:24.321Z,5.87
2018-05-17T16:58:42.182Z,6.40
2018-05-17T17:10:25.433Z,6.03
2018-05-17T17:31:34.658Z,6.30
2018-05-17T17:33:47.244Z,5.30
2018-05-17T17:35:54.035Z,5.77
2018-05-17T17:37:58.897Z,5.30
2018-05-17T17:40:06.953Z,5.27
2018-05-17T17:44:22.965Z,5.40
2018-05-17T17:46:35.282Z,5.13
2018-05-17T17:53:13.167Z,5.60
2018-05-17T17:57:35.059Z,5.03
2018-05-17T17:59:42.463Z,5.43
2018-05-17T18:01:48.209Z,5.40
2018-05-17T18:03:58.386Z,5.80
2018-05-17T18:06:07.231Z,6.23
2018-05-17T18:08:23.773Z,5.40
2018-05-17T18:12:48.839Z,6.10
2018-05-17T18:14:53.576Z,5.63
2018-05-17T18:17:03.475Z,5.63
2018-05-17T18:21:22.709Z,5.37
2018-05-17T18:23:30.030Z,5.77
2018-05-17T18:25:35.693Z,5.40
2018-05-17T18:27:45.295Z,5.90
2018-05-17T18:29:53.517Z,5.43
2018-05-17T18:31:57.964Z,5.53
2018-05-17T18:36:19.318Z,5.50
2018-05-17T18:40:46.663Z,5.93
2018-05-17T18:47:35.259Z,6.27
2018-05-17T19:39:53.381Z,5.23
2018-05-17T19:56:16.900Z,5.27
2018-05-17T19:58:24.900Z,6.60
2018-05-17T20:33:44.642Z,6.20
2018-05-17T20:35:59.424Z,5.93
2018-05-17T20:40:34.051Z,6.30
2018-05-17T20:42:46.649Z,6.17
2018-05-17T20:45:00.012Z,6.47
2018-05-17T20:47:05.019Z,6.57
2018-05-17T20:49:15.514Z,6.33
2018-05-17T20:51:19.706Z,6.70
2018-05-17T20:53:23.811Z,5.60
2018-05-17T20:55:28.060Z,6.17
2018-05-17T20:57:32.823Z,5.60
2018-05-17T20:59:37.122Z,5.80
2018-05-17T21:01:41.695Z,5.77
2018-05-17T21:03:48.217Z,6.20
2018-05-17T21:05:52.552Z,5.73
2018-05-17T21:07:56.832Z,6.40
2018-05-17T21:10:02.834Z,5.90
2018-05-17T21:12:07.153Z,5.53
2018-05-17T21:14:12.951Z,6.03
2018-05-17T21:16:18.915Z,5.60
2018-05-17T21:18:25.557Z,5.23
2018-05-17T21:20:32.739Z,5.90
2018-05-17T21:22:39.569Z,5.80
2018-05-17T21:24:44.433Z,5.63
2018-05-17T21:26:52.194Z,5.43
2018-05-17T21:28:57.122Z,6.23
2018-05-17T21:31:03.641Z,6.10
2018-05-17T21:33:08.382Z,5.70
2018-05-17T21:35:21.367Z,5.57
2018-05-17T21:37:26.414Z,6.17
2018-05-17T21:39:32.170Z,6.13
2018-05-17T21:41:37.830Z,5.50
2018-05-17T21:43:42.169Z,6.07
2018-05-17T21:45:47.464Z,6.20
2018-05-17T21:47:55.112Z,5.83
2018-05-17T21:50:01.841Z,4.97
2018-05-17T21:52:09.007Z,5.97
2018-05-17T21:54:13.695Z,5.37
2018-05-17T21:56:20.940Z,5.70
2018-05-17T21:58:31.970Z,5.87
2018-05-17T22:03:23.796Z,4.97
2018-05-17T23:00:14.948Z,6.83
2018-05-17T23:02:30.181Z,6.40
2018-05-17T23:06:50.878Z,6.40
2018-05-17T23:09:04.626Z,6.67
2018-05-17T23:11:13.430Z,6.03
2018-05-17T23:13:18.018Z,6.63
2018-05-17T23:15:24.157Z,5.80
2018-05-17T23:17:31.588Z,5.83
2018-05-17T23:19:42.166Z,6.70
2018-05-17T23:21:49.718Z,6.47
2018-05-17T23:23:56.745Z,6.43
2018-05-17T23:28:34.584Z,6.67
2018-05-17T23:38:21.283Z,6.30
2018-05-17T23:40:37.117Z,6.03
2018-05-17T23:42:47.387Z,6.83
2018-05-17T23:44:51.917Z,6.23
2018-05-17T23:46:55.954Z,6.93
2018-05-17T23:49:01.332Z,6.20
2018-05-17T23:51:07.496Z,6.77
2018-05-17T23:53:12.512Z,6.53
2018-05-17T23:55:21.578Z,7.77
2018-05-17T23:57:25.820Z,6.43
2018-05-17T23:59:30.027Z,6.23
